Hauptseite
METAR-TAF:

METAR-TAF

Flughäfen :

Flughafen Hannover-Langenhagen

Hannover, Deutschland

Breite: 52-28N, Länge: 009-41E, Höhe: 56 m

Beobachtung

Neuester Wetterbericht von vor 33 Minuten, um 19:20 UTC
Wind 2 kt aus Südost
Temperatur 23°C
Luftfeuchtigkeit 47%
Luftdruck 1017 hPa
Sichtweite 10 km oder mehr
keine Wolken unter 1500 m und keine Kumulonimbus oder Gewitterwolken

METAR: EDDV 051920Z 13002KT CAVOK 23/11 Q1017 NOSIG

Zeit: 21:53 (19:53 UTC)

Prognose

Neuester Wetterbericht von vor 2 Stunden und 53 Minuten, um 17:00 UTC
Gültige Prognose vom 05 um 18 UTC bis 06 um 18 UTC
Wind 5 kt aus Süd
Sichtweite 10 km oder mehr
keine Wolken unter 1500 m und keine Kumulonimbus oder Gewitterwolken
Übergehend zu
vom 05 um 18 UTC bis 05 um 20 UTC
Wind 4 kt aus Ost/Südost
Zeitweise
vom 05 um 22 UTC bis 06 um 16 UTC
Wind 6 kt aus Süd

TAF: EDDV 051700Z 0518/0618 19005KT CAVOK BECMG 0518/0520 12004KT TEMPO 0522/0616 19006KT

Wetterbeobachtungen und Prognosen von mehr als 4000 Flughäfen (METAR und TAF Bericht).

Die verfügbaren Stationen werden durch gelbe und rote Markierungen auf der Karte dargestellt.

Führen Sie die Maus auf sie, um den Namen der Station zu sehen.

Darauf klicken, um die Beobachtung von Wetterbeobachtungen und Prognosen zu sehen.

Um die Karte zu ändern : klicken Sie auf den grünen Tasten mit einem schwarzen Kreuz Zum Vergrößern, auf den grünen Button mit einem Gedankenstrich zu verkleinern, oder auf die grünen Pfeile für benachbarte Karten.


METAR-TAF: